Aeroporto :
LOGIN :

Iscrizione | Disclaimer

   EN    FR    IT 

 










Sommario :    VFR   VFR Marginale   IFR   IFR Intensivo   IFR Molto Intensivo
Visibilità : 
Base nubi : 
>= 8 km
>= 3000ft
5 / 8 km
1000 / 3000 ft
1500m / 5 km
500 / 1000 ft
800 / 1500m
200 / 500 ft
< 800m
< 200 ft
Simboli :   Temporali  Nebbia  Neve Forte  Precipitazioni Forti  Vento > 20 kt
SIGMETs :   Varie  Temporali  Ghiacco  Turbolenza  Onda orograficha  Ceneri Vulcaniche






- Altitudine del aeroporto : 117 ft
- Codice IATA : NWI


EGSH - Norwich

ULTIMO METAR :
  • 061720Z AUTO 30013KT 280V340 9999 SCT018/// BKN023/// BKN042/// 13/08 Q0995 TEMPO SHRA

METARs OBSOLETI :
  • 061650Z 26014KT 200V310 9999 -SHRA FEW005 SCT030 12/08 Q0994 TEMPO 4000 +SHRA
  • 061620Z 23016KT 5000 VCSH FEW021 SCT036CB 12/08 Q0994 TEMPO 4000 +SHRA
  • 061550Z 24013KT 5000 VCSH FEW021 12/10 Q0994 TEMPO 4000 TSRA BKN014
  • 061520Z 22012KT 5000 VCSH FEW003 SCT036CB 11/07 Q0994 TEMPO 4000 TSRA BKN012
  • 061450Z 25010KT 7000 VCTS FEW002 SCT029 BKN035CB 11/07 Q0994 TEMPO 4000 TSRA BKN012

TAF AMD TAF EGSH
Valido dal 06 a 17 ore il 07 a 00 ore UTC


061732Z 0617/0624 30017KT 9999 SCT030
TEMPO 0617/0620 7000 SHRA
PROB30
TEMPO 0617/0618 30018G28KT 4000 +TSRA BKN014CB
ATIS : +44 1603 420 640



MetMap, La meteo Aeronautica in un colpo d'occhio ! - Copyright ORBIFLY Dicembre 2007 - Disclaimer

ORBIFLY MET'MAP TEAM :

Programmazione e sviluppo : Alexandra Zaïnal
Concezione : Baudouin d'Aumeries
Aiuto per la programmazione : Marc-Olivier Méhu
Supporto tecnico e logistico : Manuel Goepfert
Aiuto per la traduzione : Arnaldo La Scala

Contatto : metmap@orbifly.com




FONTI E CREDITI :

   NOAA